createdAt,value
2022-08-22T04:03:36.592Z,100.00
2022-08-22T04:07:28.038Z,100.00
2022-08-22T04:10:51.732Z,100.00
2022-08-22T04:14:27.737Z,100.00
2022-08-22T04:17:55.873Z,100.00
2022-08-22T04:21:21.216Z,100.00
2022-08-22T04:24:23.192Z,100.00
2022-08-22T04:27:49.625Z,100.00
2022-08-22T04:30:52.909Z,100.00
2022-08-22T04:34:16.669Z,100.00
2022-08-22T04:37:27.768Z,100.00
2022-08-22T04:40:44.938Z,100.00
2022-08-22T04:44:07.921Z,100.00
2022-08-22T04:47:36.673Z,100.00
2022-08-22T04:50:49.556Z,100.00
2022-08-22T04:54:18.809Z,100.00
2022-08-22T04:57:34.489Z,100.00
2022-08-22T05:00:49.441Z,100.00
2022-08-22T05:04:02.910Z,100.00
2022-08-22T05:07:22.985Z,100.00
2022-08-22T05:10:35.516Z,100.00
2022-08-22T05:13:43.990Z,100.00
2022-08-22T05:16:50.637Z,100.00
2022-08-22T05:20:01.958Z,100.00
2022-08-22T05:23:50.645Z,100.00
2022-08-22T05:26:55.894Z,100.00
2022-08-22T05:30:13.450Z,100.00
2022-08-22T05:33:24.432Z,100.00
2022-08-22T05:36:31.199Z,100.00
2022-08-22T05:39:34.306Z,100.00
2022-08-22T05:42:37.448Z,100.00
2022-08-22T05:45:46.659Z,100.00
2022-08-22T05:48:58.807Z,100.00
2022-08-22T05:52:22.574Z,100.00
2022-08-22T05:55:30.418Z,100.00
2022-08-22T05:58:38.697Z,100.00
2022-08-22T06:01:53.653Z,100.00
2022-08-22T06:05:00.855Z,100.00
2022-08-22T06:08:17.913Z,100.00
2022-08-22T06:11:32.732Z,100.00
2022-08-22T06:14:45.746Z,100.00
2022-08-22T06:17:59.843Z,100.00
2022-08-22T06:21:07.313Z,100.00
2022-08-22T06:24:21.057Z,100.00
2022-08-22T06:27:27.013Z,100.00
2022-08-22T06:30:35.940Z,100.00
2022-08-22T06:33:40.851Z,100.00
2022-08-22T06:36:49.888Z,100.00
2022-08-22T06:39:54.174Z,100.00
2022-08-22T06:42:57.849Z,100.00
2022-08-22T06:46:00.800Z,100.00
2022-08-22T06:49:05.241Z,100.00
2022-08-22T06:52:12.196Z,100.00
2022-08-22T06:55:14.700Z,100.00
2022-08-22T06:58:38.770Z,100.00
2022-08-22T07:02:11.242Z,100.00
2022-08-22T07:05:23.208Z,100.00
2022-08-22T07:08:28.910Z,100.00
2022-08-22T07:11:39.633Z,100.00
2022-08-22T07:14:46.861Z,100.00
2022-08-22T07:17:59.700Z,100.00
2022-08-22T07:21:04.450Z,100.00
2022-08-22T07:24:07.546Z,100.00
2022-08-22T07:27:53.707Z,100.00
2022-08-22T07:31:18.101Z,100.00
2022-08-22T07:34:58.112Z,100.00
2022-08-22T07:38:45.933Z,100.00
2022-08-22T07:42:09.665Z,100.00
2022-08-22T07:45:17.418Z,100.00
2022-08-22T07:48:28.896Z,100.00
2022-08-22T07:51:36.672Z,100.00
2022-08-22T07:55:03.316Z,100.00
2022-08-22T07:58:07.912Z,100.00
2022-08-22T08:01:15.285Z,100.00
2022-08-22T08:04:23.207Z,100.00
2022-08-22T08:07:27.641Z,100.00
2022-08-22T08:10:35.370Z,100.00
2022-08-22T08:13:43.627Z,100.00
2022-08-22T08:17:09.709Z,100.00
2022-08-22T08:20:17.145Z,100.00
2022-08-22T08:23:23.338Z,100.00
2022-08-22T08:26:34.729Z,100.00
2022-08-22T08:29:38.422Z,100.00
2022-08-22T08:32:42.378Z,100.00
2022-08-22T08:36:02.357Z,100.00
2022-08-22T08:39:35.554Z,100.00
2022-08-22T08:43:10.628Z,100.00
2022-08-22T08:46:24.834Z,100.00
2022-08-22T08:49:42.103Z,100.00
2022-08-22T08:53:18.543Z,100.00
2022-08-22T08:56:37.834Z,100.00
2022-08-22T09:00:02.080Z,100.00
2022-08-22T09:03:57.997Z,100.00
2022-08-22T09:07:20.869Z,100.00
2022-08-22T09:10:39.635Z,98.13
2022-08-22T09:13:50.906Z,95.93
2022-08-22T09:17:08.542Z,97.80
2022-08-22T09:20:41.534Z,95.25
2022-08-22T09:24:01.956Z,91.16
2022-08-22T09:27:20.794Z,91.84
2022-08-22T09:30:55.280Z,87.07
2022-08-22T09:34:23.971Z,85.11
2022-08-22T09:37:30.849Z,84.96
2022-08-22T09:40:53.705Z,87.68
2022-08-22T09:44:39.747Z,87.81
2022-08-22T09:48:07.346Z,86.79
2022-08-22T09:51:31.832Z,88.89
2022-08-22T09:54:43.721Z,90.58
2022-08-22T09:58:02.937Z,92.20
2022-08-22T10:01:15.066Z,94.74
2022-08-22T10:04:26.474Z,96.01
2022-08-22T10:07:52.663Z,97.81
2022-08-22T10:11:11.985Z,99.23
2022-08-22T10:14:24.245Z,97.33
2022-08-22T10:17:36.472Z,98.72
2022-08-22T10:21:07.362Z,95.95
2022-08-22T10:24:25.749Z,93.85
2022-08-22T10:27:40.368Z,87.76
2022-08-22T10:30:54.835Z,88.94
2022-08-22T10:34:12.377Z,92.14
2022-08-22T10:37:40.549Z,91.69
2022-08-22T10:41:08.830Z,85.67
2022-08-22T10:44:35.126Z,82.61
2022-08-22T10:47:59.889Z,83.73
2022-08-22T10:51:18.838Z,83.08
2022-08-22T10:54:32.652Z,78.85
2022-08-22T10:57:39.301Z,79.89
2022-08-22T11:00:58.250Z,81.73
2022-08-22T11:04:21.326Z,79.19
2022-08-22T11:07:55.298Z,74.40
2022-08-22T11:11:13.829Z,74.13
2022-08-22T11:14:21.720Z,76.60
2022-08-22T11:17:40.620Z,77.84
2022-08-22T11:20:50.689Z,77.54
2022-08-22T11:24:09.357Z,77.31
2022-08-22T11:27:38.099Z,78.80
2022-08-22T11:31:12.952Z,81.77
2022-08-22T11:34:47.163Z,81.56
2022-08-22T11:38:32.421Z,79.15
2022-08-22T11:41:54.406Z,74.59
2022-08-22T11:45:04.644Z,72.10
2022-08-22T11:48:16.515Z,69.84
2022-08-22T11:51:36.179Z,71.10
2022-08-22T11:54:54.214Z,70.25
2022-08-22T11:58:04.364Z,68.79
2022-08-22T12:01:19.370Z,67.23
2022-08-22T12:04:34.341Z,69.34
2022-08-22T12:07:45.234Z,68.58
2022-08-22T12:11:01.412Z,68.57
2022-08-22T12:14:46.314Z,66.61
2022-08-22T12:18:21.349Z,61.82
2022-08-22T12:21:51.233Z,63.58
2022-08-22T12:25:22.606Z,62.99
2022-08-22T12:28:42.838Z,65.31
2022-08-22T12:32:33.327Z,65.86
2022-08-22T12:35:51.221Z,68.48
2022-08-22T12:39:17.974Z,67.77
2022-08-22T12:42:51.613Z,69.93
2022-08-22T12:46:11.865Z,70.48
2022-08-22T12:49:24.873Z,72.05
2022-08-22T12:52:29.862Z,71.63
2022-08-22T12:56:04.849Z,72.44
2022-08-22T12:59:17.813Z,75.57
2022-08-22T13:02:27.785Z,74.41
2022-08-22T13:05:40.681Z,77.09
2022-08-22T13:08:45.978Z,78.78
2022-08-22T13:11:52.007Z,80.01
2022-08-22T13:15:12.226Z,82.25
2022-08-22T13:18:31.230Z,81.80
2022-08-22T13:21:38.477Z,81.02
2022-08-22T13:24:55.208Z,81.74
2022-08-22T13:28:02.127Z,79.12
2022-08-22T13:31:07.950Z,79.14
2022-08-22T13:34:43.625Z,77.74
2022-08-22T13:37:50.037Z,77.27
2022-08-22T13:40:58.345Z,80.64
2022-08-22T13:44:15.246Z,75.51
2022-08-22T13:47:20.539Z,78.59
2022-08-22T13:50:53.105Z,76.67
2022-08-22T13:54:11.213Z,77.78
2022-08-22T13:57:37.008Z,79.40
2022-08-22T14:01:02.790Z,77.76
2022-08-22T14:04:35.910Z,77.21
2022-08-22T14:07:53.050Z,80.59
2022-08-22T14:11:02.021Z,76.48
2022-08-22T14:14:09.552Z,79.70
2022-08-22T14:17:22.834Z,78.68
2022-08-22T14:20:33.592Z,79.84
2022-08-22T14:23:36.793Z,79.95
2022-08-22T14:26:49.477Z,78.80
2022-08-22T14:29:56.229Z,79.39
2022-08-22T14:33:22.359Z,78.59
2022-08-22T14:36:38.850Z,77.01
2022-08-22T14:39:46.060Z,78.20
2022-08-22T14:43:15.765Z,79.05
2022-08-22T14:46:41.562Z,80.20
2022-08-22T14:49:53.005Z,81.07
2022-08-22T14:53:06.077Z,83.60
2022-08-22T14:56:13.470Z,82.03
2022-08-22T14:59:34.344Z,83.94
2022-08-22T15:02:36.836Z,82.16
2022-08-22T15:05:46.493Z,82.96
2022-08-22T15:08:50.553Z,83.33
2022-08-22T15:11:53.385Z,81.99
2022-08-22T15:15:01.816Z,83.55
2022-08-22T15:18:17.562Z,82.30
2022-08-22T15:21:30.590Z,82.41
2022-08-22T15:24:33.322Z,82.44
2022-08-22T15:27:47.789Z,83.49
2022-08-22T15:30:56.872Z,83.16
2022-08-22T15:34:27.497Z,84.02
